sensor_id;sensor_type;location;lat;lon;timestamp;temperature;humidity
8313;DHT22;4194;43.408;24.626;2022-11-14T00:02:18;4.40;99.90
8313;DHT22;4194;43.408;24.626;2022-11-14T00:04:47;4.30;99.90
8313;DHT22;4194;43.408;24.626;2022-11-14T00:07:13;4.30;99.90
8313;DHT22;4194;43.408;24.626;2022-11-14T00:09:40;4.70;99.90
8313;DHT22;4194;43.408;24.626;2022-11-14T00:12:10;4.10;99.90
8313;DHT22;4194;43.408;24.626;2022-11-14T00:14:36;5.30;99.90
8313;DHT22;4194;43.408;24.626;2022-11-14T00:17:02;4.10;99.90
8313;DHT22;4194;43.408;24.626;2022-11-14T00:19:28;4.10;99.90
8313;DHT22;4194;43.408;24.626;2022-11-14T00:21:53;4.10;99.90
8313;DHT22;4194;43.408;24.626;2022-11-14T00:24:19;3.90;99.90
8313;DHT22;4194;43.408;24.626;2022-11-14T00:26:45;5.30;99.90
8313;DHT22;4194;43.408;24.626;2022-11-14T00:29:12;5.30;99.90
8313;DHT22;4194;43.408;24.626;2022-11-14T00:31:38;5.80;99.90
8313;DHT22;4194;43.408;24.626;2022-11-14T00:34:04;4.20;99.90
8313;DHT22;4194;43.408;24.626;2022-11-14T00:36:29;4.10;99.90
8313;DHT22;4194;43.408;24.626;2022-11-14T00:38:55;4.00;99.90
8313;DHT22;4194;43.408;24.626;2022-11-14T00:46:17;4.10;99.90
8313;DHT22;4194;43.408;24.626;2022-11-14T00:48:43;3.60;99.90
8313;DHT22;4194;43.408;24.626;2022-11-14T00:51:09;4.10;99.90
8313;DHT22;4194;43.408;24.626;2022-11-14T00:53:35;4.90;99.90
8313;DHT22;4194;43.408;24.626;2022-11-14T00:56:01;3.00;99.90
8313;DHT22;4194;43.408;24.626;2022-11-14T00:58:27;2.90;99.90
8313;DHT22;4194;43.408;24.626;2022-11-14T01:00:52;3.70;99.90
8313;DHT22;4194;43.408;24.626;2022-11-14T01:03:18;3.70;99.90
8313;DHT22;4194;43.408;24.626;2022-11-14T01:05:49;3.60;99.90
8313;DHT22;4194;43.408;24.626;2022-11-14T01:08:16;3.90;99.90
8313;DHT22;4194;43.408;24.626;2022-11-14T01:10:45;3.20;99.90
8313;DHT22;4194;43.408;24.626;2022-11-14T01:13:12;4.10;99.90
8313;DHT22;4194;43.408;24.626;2022-11-14T01:15:43;5.00;99.90
8313;DHT22;4194;43.408;24.626;2022-11-14T01:18:15;3.70;99.90
8313;DHT22;4194;43.408;24.626;2022-11-14T01:20:43;3.90;99.90
8313;DHT22;4194;43.408;24.626;2022-11-14T01:23:09;3.20;99.90
8313;DHT22;4194;43.408;24.626;2022-11-14T01:25:37;3.90;99.90
8313;DHT22;4194;43.408;24.626;2022-11-14T01:28:07;4.70;99.90
8313;DHT22;4194;43.408;24.626;2022-11-14T01:30:33;2.80;99.90
8313;DHT22;4194;43.408;24.626;2022-11-14T01:32:59;3.70;99.90
8313;DHT22;4194;43.408;24.626;2022-11-14T01:35:25;3.70;99.90
8313;DHT22;4194;43.408;24.626;2022-11-14T01:37:51;3.70;99.90
8313;DHT22;4194;43.408;24.626;2022-11-14T01:40:16;4.00;99.90
8313;DHT22;4194;43.408;24.626;2022-11-14T01:43:07;3.80;99.90
8313;DHT22;4194;43.408;24.626;2022-11-14T01:46:05;3.80;99.90
8313;DHT22;4194;43.408;24.626;2022-11-14T01:54:23;3.90;99.90
8313;DHT22;4194;43.408;24.626;2022-11-14T01:56:56;3.60;99.90
8313;DHT22;4194;43.408;24.626;2022-11-14T01:59:26;4.20;99.90
8313;DHT22;4194;43.408;24.626;2022-11-14T02:01:54;3.70;99.90
8313;DHT22;4194;43.408;24.626;2022-11-14T02:04:24;3.50;99.90
8313;DHT22;4194;43.408;24.626;2022-11-14T02:06:57;3.50;99.90
8313;DHT22;4194;43.408;24.626;2022-11-14T02:09:26;4.00;99.90
8313;DHT22;4194;43.408;24.626;2022-11-14T02:11:54;3.50;99.90
8313;DHT22;4194;43.408;24.626;2022-11-14T02:14:21;4.00;99.90
8313;DHT22;4194;43.408;24.626;2022-11-14T02:16:47;4.10;99.90
8313;DHT22;4194;43.408;24.626;2022-11-14T02:19:14;3.00;99.90
8313;DHT22;4194;43.408;24.626;2022-11-14T02:21:40;3.60;99.90
8313;DHT22;4194;43.408;24.626;2022-11-14T02:24:10;3.60;99.90
8313;DHT22;4194;43.408;24.626;2022-11-14T02:26:36;4.20;99.90
8313;DHT22;4194;43.408;24.626;2022-11-14T02:29:03;4.00;99.90
8313;DHT22;4194;43.408;24.626;2022-11-14T02:31:29;3.70;99.90
8313;DHT22;4194;43.408;24.626;2022-11-14T02:33:55;3.80;99.90
8313;DHT22;4194;43.408;24.626;2022-11-14T02:36:21;4.10;99.90
8313;DHT22;4194;43.408;24.626;2022-11-14T02:38:46;3.00;99.90
8313;DHT22;4194;43.408;24.626;2022-11-14T02:41:12;4.00;99.90
8313;DHT22;4194;43.408;24.626;2022-11-14T02:43:38;3.70;99.90
8313;DHT22;4194;43.408;24.626;2022-11-14T02:46:04;3.60;99.90
8313;DHT22;4194;43.408;24.626;2022-11-14T02:48:29;3.50;99.90
8313;DHT22;4194;43.408;24.626;2022-11-14T02:50:55;3.10;99.90
8313;DHT22;4194;43.408;24.626;2022-11-14T02:53:21;3.40;99.90
8313;DHT22;4194;43.408;24.626;2022-11-14T02:55:46;3.40;99.90
8313;DHT22;4194;43.408;24.626;2022-11-14T02:58:12;3.30;99.90
8313;DHT22;4194;43.408;24.626;2022-11-14T03:00:38;4.20;99.90
8313;DHT22;4194;43.408;24.626;2022-11-14T03:03:03;3.80;99.90
8313;DHT22;4194;43.408;24.626;2022-11-14T03:05:29;3.50;99.90
8313;DHT22;4194;43.408;24.626;2022-11-14T03:07:55;3.60;99.90
8313;DHT22;4194;43.408;24.626;2022-11-14T03:10:21;3.40;99.90
8313;DHT22;4194;43.408;24.626;2022-11-14T03:12:51;3.50;99.90
8313;DHT22;4194;43.408;24.626;2022-11-14T03:15:17;4.00;99.90
8313;DHT22;4194;43.408;24.626;2022-11-14T03:17:42;2.80;99.90
8313;DHT22;4194;43.408;24.626;2022-11-14T03:20:08;3.80;99.90
8313;DHT22;4194;43.408;24.626;2022-11-14T03:22:34;3.40;99.90
8313;DHT22;4194;43.408;24.626;2022-11-14T03:25:00;4.00;99.90
8313;DHT22;4194;43.408;24.626;2022-11-14T03:27:26;3.50;99.90
8313;DHT22;4194;43.408;24.626;2022-11-14T03:29:51;3.80;99.90
8313;DHT22;4194;43.408;24.626;2022-11-14T03:32:17;3.60;99.90
8313;DHT22;4194;43.408;24.626;2022-11-14T03:34:43;2.80;99.90
8313;DHT22;4194;43.408;24.626;2022-11-14T03:37:09;3.30;99.90
8313;DHT22;4194;43.408;24.626;2022-11-14T03:39:35;3.00;99.90
8313;DHT22;4194;43.408;24.626;2022-11-14T03:42:00;4.00;99.90
8313;DHT22;4194;43.408;24.626;2022-11-14T03:44:26;4.30;99.90
8313;DHT22;4194;43.408;24.626;2022-11-14T03:46:52;3.30;99.90
8313;DHT22;4194;43.408;24.626;2022-11-14T03:49:17;2.80;99.90
8313;DHT22;4194;43.408;24.626;2022-11-14T03:51:43;4.30;99.90
8313;DHT22;4194;43.408;24.626;2022-11-14T03:54:09;3.30;99.90
8313;DHT22;4194;43.408;24.626;2022-11-14T03:56:35;4.20;99.90
8313;DHT22;4194;43.408;24.626;2022-11-14T03:59:00;2.90;99.90
8313;DHT22;4194;43.408;24.626;2022-11-14T04:01:26;3.70;99.90
8313;DHT22;4194;43.408;24.626;2022-11-14T04:06:19;3.80;99.90
8313;DHT22;4194;43.408;24.626;2022-11-14T04:08:45;3.70;99.90
8313;DHT22;4194;43.408;24.626;2022-11-14T04:11:11;4.10;99.90
8313;DHT22;4194;43.408;24.626;2022-11-14T04:13:37;3.70;99.90
8313;DHT22;4194;43.408;24.626;2022-11-14T04:16:02;3.00;99.90
8313;DHT22;4194;43.408;24.626;2022-11-14T04:18:28;3.30;99.90
8313;DHT22;4194;43.408;24.626;2022-11-14T04:23:20;3.80;99.90
8313;DHT22;4194;43.408;24.626;2022-11-14T04:25:46;4.60;99.90
8313;DHT22;4194;43.408;24.626;2022-11-14T04:28:12;4.90;99.90
8313;DHT22;4194;43.408;24.626;2022-11-14T04:30:38;3.90;99.90
8313;DHT22;4194;43.408;24.626;2022-11-14T04:33:04;4.20;99.90
8313;DHT22;4194;43.408;24.626;2022-11-14T04:35:30;3.90;99.90
8313;DHT22;4194;43.408;24.626;2022-11-14T04:37:55;4.60;99.90
8313;DHT22;4194;43.408;24.626;2022-11-14T04:40:21;3.90;99.90
8313;DHT22;4194;43.408;24.626;2022-11-14T04:42:47;4.20;99.90
8313;DHT22;4194;43.408;24.626;2022-11-14T04:45:13;4.00;99.90
8313;DHT22;4194;43.408;24.626;2022-11-14T04:47:41;4.80;99.90
8313;DHT22;4194;43.408;24.626;2022-11-14T04:50:07;4.20;99.90
8313;DHT22;4194;43.408;24.626;2022-11-14T04:52:33;4.50;99.90
8313;DHT22;4194;43.408;24.626;2022-11-14T04:54:59;4.70;99.90
8313;DHT22;4194;43.408;24.626;2022-11-14T04:57:25;4.20;99.90
8313;DHT22;4194;43.408;24.626;2022-11-14T04:59:50;4.30;99.90
8313;DHT22;4194;43.408;24.626;2022-11-14T05:02:16;4.30;99.90
8313;DHT22;4194;43.408;24.626;2022-11-14T05:04:42;4.80;99.90
8313;DHT22;4194;43.408;24.626;2022-11-14T05:07:10;4.50;99.90
8313;DHT22;4194;43.408;24.626;2022-11-14T05:09:35;4.40;99.90
8313;DHT22;4194;43.408;24.626;2022-11-14T05:12:02;4.50;99.90
8313;DHT22;4194;43.408;24.626;2022-11-14T05:14:28;4.80;99.90
8313;DHT22;4194;43.408;24.626;2022-11-14T05:16:54;4.70;99.90
8313;DHT22;4194;43.408;24.626;2022-11-14T05:19:19;6.20;99.90
8313;DHT22;4194;43.408;24.626;2022-11-14T05:21:45;6.10;99.90
8313;DHT22;4194;43.408;24.626;2022-11-14T05:24:11;5.30;99.90
8313;DHT22;4194;43.408;24.626;2022-11-14T05:26:36;4.10;99.90
8313;DHT22;4194;43.408;24.626;2022-11-14T05:29:02;6.20;99.90
8313;DHT22;4194;43.408;24.626;2022-11-14T05:31:28;5.00;99.90
8313;DHT22;4194;43.408;24.626;2022-11-14T05:33:54;5.00;99.90
8313;DHT22;4194;43.408;24.626;2022-11-14T05:36:19;5.00;99.90
8313;DHT22;4194;43.408;24.626;2022-11-14T05:38:45;5.60;99.90
8313;DHT22;4194;43.408;24.626;2022-11-14T05:41:13;4.90;99.90
8313;DHT22;4194;43.408;24.626;2022-11-14T05:43:39;5.50;99.90
8313;DHT22;4194;43.408;24.626;2022-11-14T05:46:08;5.00;99.90
8313;DHT22;4194;43.408;24.626;2022-11-14T05:48:34;5.50;99.90
8313;DHT22;4194;43.408;24.626;2022-11-14T05:51:00;5.70;99.90
8313;DHT22;4194;43.408;24.626;2022-11-14T05:53:28;5.20;99.90
8313;DHT22;4194;43.408;24.626;2022-11-14T05:56:19;5.90;99.90
8313;DHT22;4194;43.408;24.626;2022-11-14T05:58:45;5.70;99.90
8313;DHT22;4194;43.408;24.626;2022-11-14T06:01:16;5.80;99.90
8313;DHT22;4194;43.408;24.626;2022-11-14T06:03:45;5.00;99.90
8313;DHT22;4194;43.408;24.626;2022-11-14T06:06:13;5.30;99.90
8313;DHT22;4194;43.408;24.626;2022-11-14T06:08:40;5.90;99.90
8313;DHT22;4194;43.408;24.626;2022-11-14T06:11:08;5.70;99.90
8313;DHT22;4194;43.408;24.626;2022-11-14T06:13:35;5.50;99.90
8313;DHT22;4194;43.408;24.626;2022-11-14T06:16:03;5.60;99.90
8313;DHT22;4194;43.408;24.626;2022-11-14T06:18:29;5.90;99.90
8313;DHT22;4194;43.408;24.626;2022-11-14T06:21:22;5.50;99.90
8313;DHT22;4194;43.408;24.626;2022-11-14T06:23:48;6.10;99.90
8313;DHT22;4194;43.408;24.626;2022-11-14T06:26:31;5.50;99.90
8313;DHT22;4194;43.408;24.626;2022-11-14T06:28:57;5.80;99.90
8313;DHT22;4194;43.408;24.626;2022-11-14T06:31:24;5.60;99.90
8313;DHT22;4194;43.408;24.626;2022-11-14T06:33:51;6.80;99.90
8313;DHT22;4194;43.408;24.626;2022-11-14T06:36:17;5.40;99.90
8313;DHT22;4194;43.408;24.626;2022-11-14T06:38:43;6.60;99.90
8313;DHT22;4194;43.408;24.626;2022-11-14T06:41:13;6.00;99.90
8313;DHT22;4194;43.408;24.626;2022-11-14T06:43:40;6.60;99.90
8313;DHT22;4194;43.408;24.626;2022-11-14T06:46:08;7.00;99.90
8313;DHT22;4194;43.408;24.626;2022-11-14T06:48:34;6.00;99.90
8313;DHT22;4194;43.408;24.626;2022-11-14T06:51:01;6.20;99.90
8313;DHT22;4194;43.408;24.626;2022-11-14T06:53:30;6.10;99.90
8313;DHT22;4194;43.408;24.626;2022-11-14T06:56:10;6.30;99.90
8313;DHT22;4194;43.408;24.626;2022-11-14T06:58:39;5.60;99.90
8313;DHT22;4194;43.408;24.626;2022-11-14T07:01:27;7.30;99.90
8313;DHT22;4194;43.408;24.626;2022-11-14T07:03:52;6.50;99.90
8313;DHT22;4194;43.408;24.626;2022-11-14T07:06:23;6.60;99.90
8313;DHT22;4194;43.408;24.626;2022-11-14T07:08:50;6.70;99.90
8313;DHT22;4194;43.408;24.626;2022-11-14T07:11:21;6.90;99.90
8313;DHT22;4194;43.408;24.626;2022-11-14T07:14:01;6.30;99.90
8313;DHT22;4194;43.408;24.626;2022-11-14T07:16:34;8.50;99.90
8313;DHT22;4194;43.408;24.626;2022-11-14T07:19:02;7.80;99.90
8313;DHT22;4194;43.408;24.626;2022-11-14T07:21:29;6.60;99.90
8313;DHT22;4194;43.408;24.626;2022-11-14T07:23:56;7.80;99.90
8313;DHT22;4194;43.408;24.626;2022-11-14T07:26:22;7.70;99.90
8313;DHT22;4194;43.408;24.626;2022-11-14T07:28:48;7.20;99.90
8313;DHT22;4194;43.408;24.626;2022-11-14T07:31:16;7.70;99.90
8313;DHT22;4194;43.408;24.626;2022-11-14T07:33:42;7.50;99.90
8313;DHT22;4194;43.408;24.626;2022-11-14T07:36:09;7.80;99.90
8313;DHT22;4194;43.408;24.626;2022-11-14T07:38:37;7.60;99.90
8313;DHT22;4194;43.408;24.626;2022-11-14T07:41:05;7.50;99.90
8313;DHT22;4194;43.408;24.626;2022-11-14T07:43:32;8.20;99.90
8313;DHT22;4194;43.408;24.626;2022-11-14T07:45:59;7.40;99.90
8313;DHT22;4194;43.408;24.626;2022-11-14T07:48:25;7.30;99.90
8313;DHT22;4194;43.408;24.626;2022-11-14T07:50:50;7.50;99.90
8313;DHT22;4194;43.408;24.626;2022-11-14T07:53:16;6.60;99.90
8313;DHT22;4194;43.408;24.626;2022-11-14T07:55:42;7.80;99.90
8313;DHT22;4194;43.408;24.626;2022-11-14T07:58:08;7.90;99.90
8313;DHT22;4194;43.408;24.626;2022-11-14T08:00:34;7.50;99.90
8313;DHT22;4194;43.408;24.626;2022-11-14T08:03:00;7.80;99.90
8313;DHT22;4194;43.408;24.626;2022-11-14T08:05:25;7.70;99.90
8313;DHT22;4194;43.408;24.626;2022-11-14T08:07:51;8.00;99.90
8313;DHT22;4194;43.408;24.626;2022-11-14T08:10:19;9.00;99.90
8313;DHT22;4194;43.408;24.626;2022-11-14T08:12:45;8.90;99.90
8313;DHT22;4194;43.408;24.626;2022-11-14T08:15:12;8.40;99.90
8313;DHT22;4194;43.408;24.626;2022-11-14T08:17:38;8.40;99.90
8313;DHT22;4194;43.408;24.626;2022-11-14T08:20:06;8.50;99.90
8313;DHT22;4194;43.408;24.626;2022-11-14T08:22:32;8.70;99.90
8313;DHT22;4194;43.408;24.626;2022-11-14T08:24:58;8.80;99.90
8313;DHT22;4194;43.408;24.626;2022-11-14T08:27:24;7.70;99.90
8313;DHT22;4194;43.408;24.626;2022-11-14T08:29:50;8.90;99.90
8313;DHT22;4194;43.408;24.626;2022-11-14T08:32:19;9.20;99.90
8313;DHT22;4194;43.408;24.626;2022-11-14T08:34:44;8.50;99.90
8313;DHT22;4194;43.408;24.626;2022-11-14T08:37:10;9.30;99.90
8313;DHT22;4194;43.408;24.626;2022-11-14T08:39:36;11.30;99.90
8313;DHT22;4194;43.408;24.626;2022-11-14T08:42:01;9.20;99.90
8313;DHT22;4194;43.408;24.626;2022-11-14T08:44:27;9.50;99.90
8313;DHT22;4194;43.408;24.626;2022-11-14T08:46:53;9.50;99.90
8313;DHT22;4194;43.408;24.626;2022-11-14T08:49:18;9.50;99.90
8313;DHT22;4194;43.408;24.626;2022-11-14T08:51:44;9.30;99.90
8313;DHT22;4194;43.408;24.626;2022-11-14T08:54:10;9.60;99.90
8313;DHT22;4194;43.408;24.626;2022-11-14T08:56:35;9.00;99.90
8313;DHT22;4194;43.408;24.626;2022-11-14T08:59:04;9.30;99.90
8313;DHT22;4194;43.408;24.626;2022-11-14T09:03:59;10.40;99.90
8313;DHT22;4194;43.408;24.626;2022-11-14T09:06:25;9.40;99.90
8313;DHT22;4194;43.408;24.626;2022-11-14T09:08:51;9.40;99.90
8313;DHT22;4194;43.408;24.626;2022-11-14T09:11:16;10.60;99.90
8313;DHT22;4194;43.408;24.626;2022-11-14T09:13:42;9.60;99.90
8313;DHT22;4194;43.408;24.626;2022-11-14T09:16:08;9.70;99.90
8313;DHT22;4194;43.408;24.626;2022-11-14T09:21:05;10.50;99.90
8313;DHT22;4194;43.408;24.626;2022-11-14T09:23:31;9.80;99.90
8313;DHT22;4194;43.408;24.626;2022-11-14T09:25:57;10.70;99.90
8313;DHT22;4194;43.408;24.626;2022-11-14T09:28:23;9.70;99.90
8313;DHT22;4194;43.408;24.626;2022-11-14T09:30:49;11.10;99.90
8313;DHT22;4194;43.408;24.626;2022-11-14T09:33:15;9.60;99.90
8313;DHT22;4194;43.408;24.626;2022-11-14T09:35:40;10.20;99.90
8313;DHT22;4194;43.408;24.626;2022-11-14T09:38:08;10.00;99.90
8313;DHT22;4194;43.408;24.626;2022-11-14T09:40:51;10.50;99.90
8313;DHT22;4194;43.408;24.626;2022-11-14T09:45:50;9.90;99.90
8313;DHT22;4194;43.408;24.626;2022-11-14T09:48:19;10.80;99.90
8313;DHT22;4194;43.408;24.626;2022-11-14T09:51:05;9.80;99.90
8313;DHT22;4194;43.408;24.626;2022-11-14T09:53:54;9.70;99.90
8313;DHT22;4194;43.408;24.626;2022-11-14T09:56:23;11.60;99.90
8313;DHT22;4194;43.408;24.626;2022-11-14T09:58:50;11.40;99.90
8313;DHT22;4194;43.408;24.626;2022-11-14T10:01:24;10.40;99.90
8313;DHT22;4194;43.408;24.626;2022-11-14T10:06:58;10.00;99.90
8313;DHT22;4194;43.408;24.626;2022-11-14T10:09:46;9.10;99.90
8313;DHT22;4194;43.408;24.626;2022-11-14T10:12:33;10.40;99.90
8313;DHT22;4194;43.408;24.626;2022-11-14T10:17:52;10.30;99.90
8313;DHT22;4194;43.408;24.626;2022-11-14T10:20:38;10.20;99.90
8313;DHT22;4194;43.408;24.626;2022-11-14T10:23:24;10.20;99.90
8313;DHT22;4194;43.408;24.626;2022-11-14T10:34:01;10.60;99.90
8313;DHT22;4194;43.408;24.626;2022-11-14T10:39:23;10.00;99.90
8313;DHT22;4194;43.408;24.626;2022-11-14T10:41:53;10.10;99.90
8313;DHT22;4194;43.408;24.626;2022-11-14T10:44:25;11.70;99.90
8313;DHT22;4194;43.408;24.626;2022-11-14T10:46:57;12.00;99.90
8313;DHT22;4194;43.408;24.626;2022-11-14T10:49:31;11.90;99.90
8313;DHT22;4194;43.408;24.626;2022-11-14T10:52:00;11.50;99.90
8313;DHT22;4194;43.408;24.626;2022-11-14T10:57:18;11.00;99.90
8313;DHT22;4194;43.408;24.626;2022-11-14T10:59:44;11.10;99.90
8313;DHT22;4194;43.408;24.626;2022-11-14T11:02:10;11.60;99.90
8313;DHT22;4194;43.408;24.626;2022-11-14T11:04:40;11.30;99.90
8313;DHT22;4194;43.408;24.626;2022-11-14T11:09:33;11.20;99.90
8313;DHT22;4194;43.408;24.626;2022-11-14T11:15:22;11.30;99.90
8313;DHT22;4194;43.408;24.626;2022-11-14T11:17:59;11.10;99.90
8313;DHT22;4194;43.408;24.626;2022-11-14T11:20:29;10.80;99.90
8313;DHT22;4194;43.408;24.626;2022-11-14T11:25:38;11.30;99.90
8313;DHT22;4194;43.408;24.626;2022-11-14T11:28:18;11.30;99.90
8313;DHT22;4194;43.408;24.626;2022-11-14T11:30:55;11.10;99.90
8313;DHT22;4194;43.408;24.626;2022-11-14T11:35:53;10.70;99.90
8313;DHT22;4194;43.408;24.626;2022-11-14T11:38:20;10.80;99.90
8313;DHT22;4194;43.408;24.626;2022-11-14T11:40:51;11.40;99.90
8313;DHT22;4194;43.408;24.626;2022-11-14T11:43:30;11.10;99.90
8313;DHT22;4194;43.408;24.626;2022-11-14T11:46:03;11.50;99.90
8313;DHT22;4194;43.408;24.626;2022-11-14T11:48:36;11.00;99.90
8313;DHT22;4194;43.408;24.626;2022-11-14T11:51:04;11.10;99.90
8313;DHT22;4194;43.408;24.626;2022-11-14T11:53:37;11.70;99.90
8313;DHT22;4194;43.408;24.626;2022-11-14T12:01:10;11.10;99.90
8313;DHT22;4194;43.408;24.626;2022-11-14T12:03:36;10.10;99.90
8313;DHT22;4194;43.408;24.626;2022-11-14T12:06:18;10.60;99.90
8313;DHT22;4194;43.408;24.626;2022-11-14T12:09:21;10.00;99.90
8313;DHT22;4194;43.408;24.626;2022-11-14T12:11:59;11.50;99.90
8313;DHT22;4194;43.408;24.626;2022-11-14T12:31:12;10.70;99.90
8313;DHT22;4194;43.408;24.626;2022-11-14T12:33:43;11.70;99.90
8313;DHT22;4194;43.408;24.626;2022-11-14T12:36:11;10.50;99.90
8313;DHT22;4194;43.408;24.626;2022-11-14T12:38:48;10.70;99.90
8313;DHT22;4194;43.408;24.626;2022-11-14T12:41:29;10.50;99.90
8313;DHT22;4194;43.408;24.626;2022-11-14T12:44:17;10.50;99.90
8313;DHT22;4194;43.408;24.626;2022-11-14T12:47:10;10.40;99.90
8313;DHT22;4194;43.408;24.626;2022-11-14T13:00:25;9.70;99.90
8313;DHT22;4194;43.408;24.626;2022-11-14T13:03:10;10.70;99.90
8313;DHT22;4194;43.408;24.626;2022-11-14T13:06:02;11.40;99.90
8313;DHT22;4194;43.408;24.626;2022-11-14T13:10:55;11.90;99.90
8313;DHT22;4194;43.408;24.626;2022-11-14T13:13:22;11.90;99.90
8313;DHT22;4194;43.408;24.626;2022-11-14T13:16:25;9.60;99.90
8313;DHT22;4194;43.408;24.626;2022-11-14T13:19:19;10.30;99.90
8313;DHT22;4194;43.408;24.626;2022-11-14T13:27:29;11.50;99.90
8313;DHT22;4194;43.408;24.626;2022-11-14T13:29:56;10.80;99.90
8313;DHT22;4194;43.408;24.626;2022-11-14T13:47:11;9.80;99.90
8313;DHT22;4194;43.408;24.626;2022-11-14T13:52:04;9.80;99.90
8313;DHT22;4194;43.408;24.626;2022-11-14T13:54:30;9.00;99.90
8313;DHT22;4194;43.408;24.626;2022-11-14T14:16:10;9.80;99.90
8313;DHT22;4194;43.408;24.626;2022-11-14T14:32:18;9.70;99.90
8313;DHT22;4194;43.408;24.626;2022-11-14T14:34:44;9.80;99.90
8313;DHT22;4194;43.408;24.626;2022-11-14T14:37:22;9.30;99.90
8313;DHT22;4194;43.408;24.626;2022-11-14T14:40:04;11.20;99.90
8313;DHT22;4194;43.408;24.626;2022-11-14T14:42:36;9.60;99.90
8313;DHT22;4194;43.408;24.626;2022-11-14T14:45:03;10.00;99.90
8313;DHT22;4194;43.408;24.626;2022-11-14T14:47:35;9.60;99.90
8313;DHT22;4194;43.408;24.626;2022-11-14T14:50:06;9.80;99.90
8313;DHT22;4194;43.408;24.626;2022-11-14T14:52:35;10.40;99.90
8313;DHT22;4194;43.408;24.626;2022-11-14T14:55:01;11.00;99.90
8313;DHT22;4194;43.408;24.626;2022-11-14T14:57:28;9.80;99.90
8313;DHT22;4194;43.408;24.626;2022-11-14T15:00:03;9.70;99.90
8313;DHT22;4194;43.408;24.626;2022-11-14T15:02:29;9.70;99.90
8313;DHT22;4194;43.408;24.626;2022-11-14T15:04:56;9.70;99.90
8313;DHT22;4194;43.408;24.626;2022-11-14T15:07:26;9.70;99.90
8313;DHT22;4194;43.408;24.626;2022-11-14T15:09:59;9.70;99.90
8313;DHT22;4194;43.408;24.626;2022-11-14T15:12:28;9.60;99.90
8313;DHT22;4194;43.408;24.626;2022-11-14T15:14:55;9.40;99.90
8313;DHT22;4194;43.408;24.626;2022-11-14T15:17:23;9.50;99.90
8313;DHT22;4194;43.408;24.626;2022-11-14T15:19:51;9.50;99.90
8313;DHT22;4194;43.408;24.626;2022-11-14T15:24:43;10.40;99.90
8313;DHT22;4194;43.408;24.626;2022-11-14T15:27:17;8.10;99.90
8313;DHT22;4194;43.408;24.626;2022-11-14T15:29:54;9.40;99.90
8313;DHT22;4194;43.408;24.626;2022-11-14T15:32:23;9.30;99.90
8313;DHT22;4194;43.408;24.626;2022-11-14T15:40:24;9.80;99.90
8313;DHT22;4194;43.408;24.626;2022-11-14T15:42:50;8.10;99.90
8313;DHT22;4194;43.408;24.626;2022-11-14T15:45:27;10.30;99.90
8313;DHT22;4194;43.408;24.626;2022-11-14T15:48:00;9.40;99.90
8313;DHT22;4194;43.408;24.626;2022-11-14T15:50:31;8.70;99.90
8313;DHT22;4194;43.408;24.626;2022-11-14T15:53:00;9.30;99.90
8313;DHT22;4194;43.408;24.626;2022-11-14T15:55:27;10.50;99.90
8313;DHT22;4194;43.408;24.626;2022-11-14T15:57:53;8.80;99.90
8313;DHT22;4194;43.408;24.626;2022-11-14T16:00:18;10.40;99.90
8313;DHT22;4194;43.408;24.626;2022-11-14T16:02:51;9.20;99.90
8313;DHT22;4194;43.408;24.626;2022-11-14T16:05:24;10.20;99.90
8313;DHT22;4194;43.408;24.626;2022-11-14T16:07:50;8.90;99.90
8313;DHT22;4194;43.408;24.626;2022-11-14T16:10:24;9.20;99.90
8313;DHT22;4194;43.408;24.626;2022-11-14T16:12:50;9.30;99.90
8313;DHT22;4194;43.408;24.626;2022-11-14T16:15:16;7.70;99.90
8313;DHT22;4194;43.408;24.626;2022-11-14T16:17:44;9.20;99.90
8313;DHT22;4194;43.408;24.626;2022-11-14T16:20:25;10.40;99.90
8313;DHT22;4194;43.408;24.626;2022-11-14T16:22:51;9.10;99.90
8313;DHT22;4194;43.408;24.626;2022-11-14T16:25:26;9.00;99.90
8313;DHT22;4194;43.408;24.626;2022-11-14T16:27:52;9.20;99.90
8313;DHT22;4194;43.408;24.626;2022-11-14T16:30:19;9.10;99.90
8313;DHT22;4194;43.408;24.626;2022-11-14T16:32:47;9.10;99.90
8313;DHT22;4194;43.408;24.626;2022-11-14T16:37:39;9.00;99.90
8313;DHT22;4194;43.408;24.626;2022-11-14T16:40:06;9.10;99.90
8313;DHT22;4194;43.408;24.626;2022-11-14T16:42:36;7.90;99.90
8313;DHT22;4194;43.408;24.626;2022-11-14T16:45:02;9.00;99.90
8313;DHT22;4194;43.408;24.626;2022-11-14T16:47:28;9.10;99.90
8313;DHT22;4194;43.408;24.626;2022-11-14T16:49:55;10.20;99.90
8313;DHT22;4194;43.408;24.626;2022-11-14T16:52:21;9.00;99.90
8313;DHT22;4194;43.408;24.626;2022-11-14T16:54:47;9.20;99.90
8313;DHT22;4194;43.408;24.626;2022-11-14T16:57:12;9.00;99.90
8313;DHT22;4194;43.408;24.626;2022-11-14T16:59:38;10.10;99.90
8313;DHT22;4194;43.408;24.626;2022-11-14T17:02:04;9.00;99.90
8313;DHT22;4194;43.408;24.626;2022-11-14T17:04:29;9.00;99.90
8313;DHT22;4194;43.408;24.626;2022-11-14T17:06:55;9.00;99.90
8313;DHT22;4194;43.408;24.626;2022-11-14T17:09:21;8.90;99.90
8313;DHT22;4194;43.408;24.626;2022-11-14T17:11:47;9.60;99.90
8313;DHT22;4194;43.408;24.626;2022-11-14T17:14:12;9.80;99.90
8313;DHT22;4194;43.408;24.626;2022-11-14T17:16:38;9.30;99.90
8313;DHT22;4194;43.408;24.626;2022-11-14T17:19:04;9.00;99.90
8313;DHT22;4194;43.408;24.626;2022-11-14T17:21:30;9.00;99.90
8313;DHT22;4194;43.408;24.626;2022-11-14T17:23:58;8.60;99.90
8313;DHT22;4194;43.408;24.626;2022-11-14T17:26:27;8.30;99.90
8313;DHT22;4194;43.408;24.626;2022-11-14T17:28:53;8.30;99.90
8313;DHT22;4194;43.408;24.626;2022-11-14T17:31:19;8.50;99.90
8313;DHT22;4194;43.408;24.626;2022-11-14T17:33:55;9.10;99.90
8313;DHT22;4194;43.408;24.626;2022-11-14T17:36:23;9.10;99.90
8313;DHT22;4194;43.408;24.626;2022-11-14T17:38:49;9.00;99.90
8313;DHT22;4194;43.408;24.626;2022-11-14T17:41:14;9.00;99.90
8313;DHT22;4194;43.408;24.626;2022-11-14T17:43:40;10.20;99.90
8313;DHT22;4194;43.408;24.626;2022-11-14T17:46:06;9.00;99.90
8313;DHT22;4194;43.408;24.626;2022-11-14T17:48:32;8.90;99.90
8313;DHT22;4194;43.408;24.626;2022-11-14T17:51:05;9.60;99.90
8313;DHT22;4194;43.408;24.626;2022-11-14T17:53:33;9.10;99.90
8313;DHT22;4194;43.408;24.626;2022-11-14T17:55:58;9.00;99.90
8313;DHT22;4194;43.408;24.626;2022-11-14T17:58:26;9.10;99.90
8313;DHT22;4194;43.408;24.626;2022-11-14T18:00:52;8.90;99.90
8313;DHT22;4194;43.408;24.626;2022-11-14T18:03:19;8.80;99.90
8313;DHT22;4194;43.408;24.626;2022-11-14T18:05:45;9.20;99.90
8313;DHT22;4194;43.408;24.626;2022-11-14T18:08:11;9.00;99.90
8313;DHT22;4194;43.408;24.626;2022-11-14T18:10:37;9.00;99.90
8313;DHT22;4194;43.408;24.626;2022-11-14T18:13:05;10.20;99.90
8313;DHT22;4194;43.408;24.626;2022-11-14T18:15:31;9.20;99.90
8313;DHT22;4194;43.408;24.626;2022-11-14T18:17:57;8.90;99.90
8313;DHT22;4194;43.408;24.626;2022-11-14T18:20:23;10.30;99.90
8313;DHT22;4194;43.408;24.626;2022-11-14T18:22:48;9.40;99.90
8313;DHT22;4194;43.408;24.626;2022-11-14T18:25:14;9.60;99.90
8313;DHT22;4194;43.408;24.626;2022-11-14T18:27:40;9.00;99.90
8313;DHT22;4194;43.408;24.626;2022-11-14T18:30:06;9.20;99.90
8313;DHT22;4194;43.408;24.626;2022-11-14T18:32:32;9.10;99.90
8313;DHT22;4194;43.408;24.626;2022-11-14T18:34:57;9.00;99.90
8313;DHT22;4194;43.408;24.626;2022-11-14T18:37:23;9.10;99.90
8313;DHT22;4194;43.408;24.626;2022-11-14T18:39:49;9.40;99.90
8313;DHT22;4194;43.408;24.626;2022-11-14T18:42:14;8.70;99.90
8313;DHT22;4194;43.408;24.626;2022-11-14T18:44:40;9.10;99.90